createdAt,value
2018-01-07T00:04:40.911Z,99548.53
2018-01-07T00:10:44.557Z,99562.23
2018-01-07T00:16:48.039Z,99581.86
2018-01-07T00:22:52.271Z,99572.54
2018-01-07T00:28:57.310Z,99578.05
2018-01-07T00:35:00.819Z,99585.89
2018-01-07T00:41:04.552Z,99594.62
2018-01-07T00:47:08.158Z,99614.08
2018-01-07T00:53:12.363Z,99615.96
2018-01-07T00:59:16.535Z,99621.63
2018-01-07T01:05:19.963Z,99634.05
2018-01-07T01:11:24.616Z,99653.94
2018-01-07T01:17:28.320Z,99661.21
2018-01-07T01:23:31.805Z,99676.07
2018-01-07T01:29:35.307Z,99686.39
2018-01-07T01:35:38.944Z,99704.59
2018-01-07T01:41:42.754Z,99712.30
2018-01-07T01:47:46.201Z,99725.97
2018-01-07T01:53:49.661Z,99743.80
2018-01-07T02:12:54.135Z,99785.00
2018-01-07T02:18:58.053Z,99788.41
2018-01-07T02:25:01.642Z,99806.61
2018-01-07T02:31:05.233Z,99812.22
2018-01-07T02:37:09.446Z,99823.00
2018-01-07T02:43:12.931Z,99822.52
2018-01-07T02:49:16.416Z,99824.48
2018-01-07T02:55:19.920Z,99841.81
2018-01-07T03:01:23.529Z,99846.43
2018-01-07T03:07:27.152Z,99849.26
2018-01-07T03:13:31.622Z,99857.20
2018-01-07T03:19:35.351Z,99870.78
2018-01-07T03:25:38.994Z,99875.23
2018-01-07T03:31:43.202Z,99880.20
2018-01-07T03:37:46.933Z,99890.30
2018-01-07T03:43:50.658Z,99888.30
2018-01-07T03:49:56.087Z,99895.23
2018-01-07T03:56:00.434Z,99906.66
2018-01-07T04:02:04.690Z,99910.08
2018-01-07T04:08:08.179Z,99918.11
2018-01-07T04:14:11.771Z,99926.64
2018-01-07T04:20:15.396Z,99929.62
2018-01-07T04:26:18.898Z,99943.92
2018-01-07T04:32:22.325Z,99949.73
2018-01-07T04:38:26.332Z,99951.30
2018-01-07T04:44:30.837Z,99951.80
2018-01-07T04:50:34.464Z,99953.89
2018-01-07T04:56:38.679Z,99958.41
2018-01-07T05:02:42.197Z,99970.16
2018-01-07T05:08:45.649Z,99981.52
2018-01-07T05:14:50.644Z,99990.75
2018-01-07T05:20:55.304Z,100004.20
2018-01-07T05:26:59.401Z,100013.59
2018-01-07T05:33:03.654Z,100026.59
2018-01-07T05:39:07.361Z,100034.36
2018-01-07T05:45:10.810Z,100041.02
2018-01-07T05:51:14.676Z,100063.74
2018-01-07T06:10:18.463Z,100102.16
2018-01-07T06:16:21.995Z,100120.58
2018-01-07T06:22:26.142Z,100124.09
2018-01-07T06:28:29.602Z,100143.11
2018-01-07T06:34:33.061Z,100148.05
2018-01-07T06:40:36.651Z,100165.24
2018-01-07T06:46:40.221Z,100184.02
2018-01-07T06:52:43.799Z,100178.91
2018-01-07T06:58:47.335Z,100182.49
2018-01-07T07:04:50.982Z,100189.49
2018-01-07T07:10:54.945Z,100210.13
2018-01-07T07:16:59.265Z,100215.94
2018-01-07T07:23:03.037Z,100226.18
2018-01-07T07:29:06.498Z,100238.45
2018-01-07T07:35:10.118Z,100260.30
2018-01-07T07:41:13.646Z,100271.59
2018-01-07T07:47:17.863Z,100275.88
2018-01-07T07:53:21.448Z,100284.91
2018-01-07T07:59:25.434Z,100295.59
2018-01-07T08:05:29.648Z,100311.02
2018-01-07T08:11:33.149Z,100334.33
2018-01-07T08:17:37.406Z,100335.16
2018-01-07T08:23:41.645Z,100346.25
2018-01-07T08:29:45.100Z,100362.48
2018-01-07T08:35:48.561Z,100375.49
2018-01-07T08:41:52.155Z,100374.06
2018-01-07T08:47:57.160Z,100383.86
2018-01-07T08:54:00.627Z,100405.59
2018-01-07T09:00:04.151Z,100431.08
2018-01-07T09:06:08.493Z,100436.57
2018-01-07T09:12:12.095Z,100450.64
2018-01-07T09:18:16.359Z,100453.83
2018-01-07T09:24:20.791Z,100466.66
2018-01-07T09:30:24.826Z,100462.56
2018-01-07T09:36:28.951Z,100455.70
2018-01-07T09:42:32.480Z,100468.20
2018-01-07T09:48:35.979Z,100475.97
2018-01-07T09:54:40.253Z,100478.16
2018-01-07T10:00:43.850Z,100489.62
2018-01-07T10:06:47.364Z,100480.55
2018-01-07T10:12:51.668Z,100489.45
2018-01-07T10:18:55.321Z,100495.11
2018-01-07T10:24:58.806Z,100491.73
2018-01-07T10:31:03.118Z,100514.31
2018-01-07T10:37:07.529Z,100513.36
2018-01-07T10:43:10.996Z,100519.31
2018-01-07T10:49:14.452Z,100528.78
2018-01-07T10:55:18.049Z,100519.67
2018-01-07T11:01:27.222Z,100511.02
2018-01-07T11:07:30.931Z,100508.16
2018-01-07T11:13:35.187Z,100518.64
2018-01-07T11:19:38.728Z,100520.54
2018-01-07T11:25:43.004Z,100531.28
2018-01-07T11:31:47.234Z,100517.59
2018-01-07T11:37:50.728Z,100522.23
2018-01-07T11:43:55.589Z,100530.03
2018-01-07T11:49:59.900Z,100544.80
2018-01-07T11:56:03.685Z,100557.12
2018-01-07T12:02:07.164Z,100547.25
2018-01-07T12:08:10.630Z,100537.12
2018-01-07T12:14:14.201Z,100536.73
2018-01-07T12:20:18.561Z,100550.57
2018-01-07T12:26:22.209Z,100559.95
2018-01-07T12:32:25.816Z,100555.39
2018-01-07T12:38:29.639Z,100550.14
2018-01-07T12:44:34.037Z,100541.42
2018-01-07T12:50:38.310Z,100537.33
2018-01-07T12:56:42.754Z,100535.34
2018-01-07T13:02:46.377Z,100533.23
2018-01-07T13:08:49.896Z,100535.91
2018-01-07T13:14:55.109Z,100539.25
2018-01-07T13:20:58.655Z,100545.64
2018-01-07T13:27:02.100Z,100542.25
2018-01-07T13:33:05.600Z,100547.03
2018-01-07T13:39:09.131Z,100543.80
2018-01-07T13:45:12.640Z,100538.23
2018-01-07T13:51:16.122Z,100543.34
2018-01-07T13:57:19.733Z,100546.41
2018-01-07T14:03:23.496Z,100549.00
2018-01-07T14:09:27.481Z,100553.91
2018-01-07T14:15:31.093Z,100562.83
2018-01-07T14:21:34.945Z,100565.05
2018-01-07T14:27:38.430Z,100570.73
2018-01-07T14:33:41.920Z,100582.81
2018-01-07T14:39:45.512Z,100583.11
2018-01-07T14:45:48.951Z,100584.28
2018-01-07T14:51:52.444Z,100586.88
2018-01-07T14:57:56.964Z,100584.86
2018-01-07T15:04:00.516Z,100592.84
2018-01-07T15:10:04.787Z,100587.39
2018-01-07T15:16:09.028Z,100584.84
2018-01-07T15:22:12.534Z,100589.22
2018-01-07T15:28:15.998Z,100590.09
2018-01-07T15:34:19.452Z,100583.76
2018-01-07T15:40:23.065Z,100594.56
2018-01-07T15:46:27.199Z,100594.92
2018-01-07T15:52:30.640Z,100590.44
2018-01-07T15:58:34.366Z,100595.84
2018-01-07T16:04:37.846Z,100600.36
2018-01-07T16:10:41.303Z,100609.73
2018-01-07T16:16:44.773Z,100594.81
2018-01-07T16:22:48.224Z,100607.34
2018-01-07T16:28:51.693Z,100594.09
2018-01-07T16:34:55.452Z,100603.31
2018-01-07T16:41:00.232Z,100608.88
2018-01-07T16:47:03.734Z,100606.98
2018-01-07T16:53:08.062Z,100608.71
2018-01-07T16:59:11.806Z,100616.73
2018-01-07T17:05:15.268Z,100613.89
2018-01-07T17:11:18.905Z,100620.75
2018-01-07T17:17:22.494Z,100628.72
2018-01-07T17:23:28.126Z,100623.73
2018-01-07T17:29:32.002Z,100632.36
2018-01-07T17:35:35.550Z,100635.62
2018-01-07T17:41:40.047Z,100641.91
2018-01-07T17:47:43.495Z,100653.77
2018-01-07T17:53:47.852Z,100653.08
2018-01-07T17:59:51.495Z,100661.42
2018-01-07T18:05:55.653Z,100662.79
2018-01-07T18:12:00.040Z,100671.57
2018-01-07T18:18:03.572Z,100687.11
2018-01-07T18:24:07.184Z,100695.60
2018-01-07T18:30:10.735Z,100703.70
2018-01-07T18:36:14.991Z,100703.12
2018-01-07T18:42:19.425Z,100703.31
2018-01-07T18:48:25.056Z,100704.33
2018-01-07T18:54:29.046Z,100703.58
2018-01-07T19:00:32.656Z,100699.44
2018-01-07T19:06:36.107Z,100719.91
2018-01-07T19:12:39.847Z,100710.34
2018-01-07T19:18:43.631Z,100721.02
2018-01-07T19:24:47.268Z,100705.16
2018-01-07T19:30:50.754Z,100714.94
2018-01-07T19:36:54.646Z,100709.01
2018-01-07T19:42:59.189Z,100719.59
2018-01-07T19:49:02.679Z,100717.20
2018-01-07T19:55:06.895Z,100721.83
2018-01-07T20:01:10.365Z,100718.00
2018-01-07T20:07:14.001Z,100713.36
2018-01-07T20:13:17.546Z,100714.63
2018-01-07T20:19:21.009Z,100716.18
2018-01-07T20:25:24.773Z,100724.47
2018-01-07T20:31:28.625Z,100718.72
2018-01-07T20:37:32.165Z,100723.11
2018-01-07T20:43:35.635Z,100726.05
2018-01-07T20:49:39.213Z,100727.42
2018-01-07T20:55:42.721Z,100729.08
2018-01-07T21:01:46.260Z,100725.43
2018-01-07T21:07:50.523Z,100726.05
2018-01-07T21:13:55.018Z,100733.88
2018-01-07T21:19:58.601Z,100725.30
2018-01-07T21:26:02.374Z,100718.31
2018-01-07T21:32:06.209Z,100722.30
2018-01-07T21:38:09.670Z,100720.41
2018-01-07T21:44:13.141Z,100717.91
2018-01-07T21:50:16.678Z,100722.24
2018-01-07T21:56:20.952Z,100724.38
2018-01-07T22:02:44.050Z,100727.09
2018-01-07T22:08:47.629Z,100726.53
2018-01-07T22:14:51.069Z,100721.62
2018-01-07T22:20:54.780Z,100724.75
2018-01-07T22:26:58.269Z,100732.59
2018-01-07T22:33:01.942Z,100723.98
2018-01-07T22:39:05.494Z,100727.93
2018-01-07T22:45:09.195Z,100719.17
2018-01-07T22:51:12.640Z,100722.95
2018-01-07T22:57:16.274Z,100716.03
2018-01-07T23:03:19.923Z,100711.77
2018-01-07T23:09:23.634Z,100709.36
2018-01-07T23:15:27.635Z,100711.66
2018-01-07T23:21:31.111Z,100707.62
2018-01-07T23:27:34.584Z,100717.11
2018-01-07T23:33:38.045Z,100720.14
2018-01-07T23:39:41.504Z,100713.69
2018-01-07T23:45:45.076Z,100715.65
2018-01-07T23:51:49.329Z,100707.30
2018-01-07T23:57:52.918Z,100701.24
